Archival Weather

General Ignacio P Garcia Intl

General Ignacio P Garcia Intl, Mexico (MMHO)

Report from: Wednesday, December 6, 2023 9:42 AM CST
Current time: Friday, February 23, 2024 1:21 PM CST

Current weather – Weather history – Daily summaries
Weather forecast

Temperature15.0°C (59.0°F)
Dew point0.0°C (32.0°F)
Winds Calm
Visibility10 mi. (16.1 km)
Clouds Few clouds 9,000 ft. (2,743 m)
Ceiling: Broken clouds 20,000 ft. (6,096 m)
Altimeter30.08 in.Hg (1019 mB)
Relative humidity36 %
Density altitude-86 ft. (-26 m)
Flight conditions Visual Meteorological Conditions
Raw dataMMHO 061542Z 00000KT 10SM FEW090 BKN200 15/00 A3008 RMK 8/038 HZY
An error has occurred. This application may no longer respond until reloaded. Reload 🗙